createdAt,value
2023-04-16T00:00:35.239Z,420.00
2023-04-16T00:01:35.249Z,422.00
2023-04-16T00:02:35.353Z,421.00
2023-04-16T00:03:35.559Z,418.00
2023-04-16T00:04:35.358Z,416.00
2023-04-16T00:05:35.271Z,416.00
2023-04-16T00:06:35.720Z,414.00
2023-04-16T00:07:35.342Z,415.00
2023-04-16T00:08:35.281Z,416.00
2023-04-16T00:09:35.322Z,416.00
2023-04-16T00:10:35.342Z,417.00
2023-04-16T00:11:35.339Z,416.00
2023-04-16T00:12:35.331Z,415.00
2023-04-16T00:13:35.360Z,413.00
2023-04-16T00:14:35.310Z,415.00
2023-04-16T00:15:35.316Z,415.00
2023-04-16T00:16:35.415Z,416.00
2023-04-16T00:17:35.386Z,417.00
2023-04-16T00:18:35.341Z,417.00
2023-04-16T00:19:35.310Z,418.00
2023-04-16T00:20:35.356Z,417.00
2023-04-16T00:21:35.359Z,416.00
2023-04-16T00:22:35.381Z,415.00
2023-04-16T00:23:35.481Z,414.00
2023-04-16T00:24:35.400Z,410.00
2023-04-16T00:25:35.455Z,411.00
2023-04-16T00:26:35.454Z,410.00
2023-04-16T00:27:35.478Z,410.00
2023-04-16T00:28:35.517Z,409.00
2023-04-16T00:29:35.535Z,409.00
2023-04-16T00:30:35.608Z,409.00
2023-04-16T00:31:35.607Z,410.00
2023-04-16T00:32:35.674Z,413.00
2023-04-16T00:33:35.647Z,415.00
2023-04-16T00:34:35.675Z,416.00
2023-04-16T00:35:35.706Z,419.00
2023-04-16T00:36:35.725Z,423.00
2023-04-16T00:37:35.739Z,422.00
2023-04-16T00:38:35.842Z,421.00
2023-04-16T00:39:35.822Z,417.00
2023-04-16T00:40:35.877Z,416.00
2023-04-16T00:41:35.918Z,417.00
2023-04-16T00:42:35.923Z,417.00
2023-04-16T00:43:35.940Z,417.00
2023-04-16T00:44:36.020Z,418.00
2023-04-16T00:45:35.975Z,417.00
2023-04-16T00:46:36.079Z,419.00
2023-04-16T00:47:36.198Z,420.00
2023-04-16T00:48:36.169Z,419.00
2023-04-16T00:49:36.167Z,418.00
2023-04-16T00:50:36.236Z,417.00
2023-04-16T00:51:36.285Z,416.00
2023-04-16T00:52:36.356Z,418.00
2023-04-16T00:53:36.360Z,417.00
2023-04-16T00:54:36.455Z,418.00
2023-04-16T00:55:36.451Z,419.00
2023-04-16T00:56:36.478Z,419.00
2023-04-16T00:57:36.541Z,417.00
2023-04-16T00:58:36.617Z,415.00
2023-04-16T00:59:36.601Z,414.00
2023-04-16T01:00:36.646Z,413.00
2023-04-16T01:01:36.668Z,416.00
2023-04-16T01:02:36.846Z,415.00
2023-04-16T01:03:36.877Z,418.00
2023-04-16T01:04:36.828Z,419.00
2023-04-16T01:05:36.768Z,419.00
2023-04-16T01:06:36.784Z,420.00
2023-04-16T01:07:36.816Z,419.00
2023-04-16T01:08:36.783Z,419.00
2023-04-16T01:09:36.859Z,419.00
2023-04-16T01:10:36.886Z,417.00
2023-04-16T01:11:36.882Z,416.00
2023-04-16T01:12:36.919Z,418.00
2023-04-16T01:13:36.957Z,418.00
2023-04-16T01:14:36.948Z,418.00
2023-04-16T01:15:36.955Z,421.00
2023-04-16T01:16:37.000Z,424.00
2023-04-16T01:17:37.010Z,425.00
2023-04-16T01:18:37.025Z,427.00
2023-04-16T01:19:37.023Z,426.00
2023-04-16T01:20:37.010Z,426.00
2023-04-16T01:21:37.111Z,427.00
2023-04-16T01:22:37.049Z,426.00
2023-04-16T01:23:37.077Z,423.00
2023-04-16T01:24:37.057Z,421.00
2023-04-16T01:25:37.020Z,419.00
2023-04-16T01:26:37.068Z,418.00
2023-04-16T01:27:37.071Z,418.00
2023-04-16T01:28:37.091Z,418.00
2023-04-16T01:29:37.102Z,418.00
2023-04-16T01:30:37.233Z,417.00
2023-04-16T01:31:37.221Z,417.00
2023-04-16T01:32:37.161Z,415.00
2023-04-16T01:33:37.147Z,415.00
2023-04-16T01:34:37.179Z,419.00
2023-04-16T01:35:37.515Z,418.00
2023-04-16T01:36:37.157Z,419.00
2023-04-16T01:37:37.185Z,423.00
2023-04-16T01:38:37.196Z,421.00
2023-04-16T01:39:37.165Z,421.00
2023-04-16T01:40:37.178Z,421.00
2023-04-16T01:41:37.201Z,422.00
2023-04-16T01:42:37.223Z,423.00
2023-04-16T01:43:40.098Z,424.00
2023-04-16T01:44:37.574Z,426.00
2023-04-16T01:45:37.194Z,427.00
2023-04-16T01:46:37.193Z,428.00
2023-04-16T01:47:37.224Z,428.00
2023-04-16T01:48:37.158Z,428.00
2023-04-16T01:49:37.196Z,427.00
2023-04-16T01:50:37.144Z,428.00
2023-04-16T01:51:37.177Z,425.00
2023-04-16T01:52:37.210Z,423.00
2023-04-16T01:53:37.296Z,423.00
2023-04-16T01:54:37.171Z,424.00
2023-04-16T01:55:37.122Z,426.00
2023-04-16T01:56:37.079Z,424.00
2023-04-16T01:57:37.097Z,424.00
2023-04-16T01:58:37.093Z,424.00
2023-04-16T01:59:37.123Z,424.00
2023-04-16T02:00:37.115Z,425.00
2023-04-16T02:01:37.085Z,427.00
2023-04-16T02:02:37.242Z,426.00
2023-04-16T02:03:37.171Z,426.00
2023-04-16T02:04:37.094Z,425.00
2023-04-16T02:05:37.053Z,423.00
2023-04-16T02:06:37.079Z,424.00
2023-04-16T02:07:37.080Z,423.00
2023-04-16T02:08:37.029Z,424.00
2023-04-16T02:09:37.030Z,423.00
2023-04-16T02:10:37.041Z,425.00
2023-04-16T02:11:37.014Z,423.00
2023-04-16T02:12:37.019Z,424.00
2023-04-16T02:13:37.032Z,421.00
2023-04-16T02:14:37.305Z,420.00
2023-04-16T02:15:36.985Z,420.00
2023-04-16T02:16:37.020Z,423.00
2023-04-16T02:17:37.018Z,423.00
2023-04-16T02:18:36.912Z,424.00
2023-04-16T02:19:36.947Z,423.00
2023-04-16T02:20:36.959Z,420.00
2023-04-16T02:21:36.962Z,420.00
2023-04-16T02:22:36.941Z,419.00
2023-04-16T02:23:36.925Z,418.00
2023-04-16T02:24:36.936Z,419.00
2023-04-16T02:25:36.923Z,420.00
2023-04-16T02:26:36.882Z,421.00
2023-04-16T02:27:36.918Z,422.00
2023-04-16T02:28:36.898Z,420.00
2023-04-16T02:29:36.961Z,422.00
2023-04-16T02:30:36.969Z,421.00
2023-04-16T02:31:37.157Z,421.00
2023-04-16T02:32:37.104Z,419.00
2023-04-16T02:33:37.056Z,419.00
2023-04-16T02:34:37.114Z,419.00
2023-04-16T02:35:37.112Z,422.00
2023-04-16T02:36:37.173Z,421.00
2023-04-16T02:37:37.211Z,419.00
2023-04-16T02:38:37.241Z,416.00
2023-04-16T02:39:37.288Z,415.00
2023-04-16T02:40:37.310Z,416.00
2023-04-16T02:41:37.320Z,417.00
2023-04-16T02:42:37.314Z,419.00
2023-04-16T02:43:37.350Z,419.00
2023-04-16T02:44:37.359Z,421.00
2023-04-16T02:45:37.468Z,424.00
2023-04-16T02:46:37.394Z,425.00
2023-04-16T02:47:37.491Z,424.00
2023-04-16T02:48:37.424Z,425.00
2023-04-16T02:49:37.449Z,425.00
2023-04-16T02:50:37.498Z,423.00
2023-04-16T02:51:37.532Z,423.00
2023-04-16T02:52:37.553Z,424.00
2023-04-16T02:53:37.529Z,424.00
2023-04-16T02:54:37.606Z,425.00
2023-04-16T02:55:37.514Z,424.00
2023-04-16T02:56:37.560Z,423.00
2023-04-16T02:57:38.879Z,426.00
2023-04-16T02:58:37.584Z,424.00
2023-04-16T02:59:37.573Z,427.00
2023-04-16T03:00:37.615Z,427.00
2023-04-16T03:01:37.696Z,425.00
2023-04-16T03:02:37.680Z,426.00
2023-04-16T03:03:37.617Z,429.00
2023-04-16T03:04:37.696Z,429.00
2023-04-16T03:05:39.744Z,429.00
2023-04-16T03:06:37.651Z,428.00
2023-04-16T03:07:37.670Z,430.00
2023-04-16T03:08:37.636Z,428.00
2023-04-16T03:09:37.702Z,427.00
2023-04-16T03:10:37.615Z,428.00
2023-04-16T03:11:37.613Z,428.00
2023-04-16T03:12:37.613Z,430.00
2023-04-16T03:13:37.603Z,429.00
2023-04-16T03:14:37.654Z,426.00
2023-04-16T03:15:37.610Z,427.00
2023-04-16T03:16:37.633Z,427.00
2023-04-16T03:17:37.652Z,425.00
2023-04-16T03:18:37.550Z,424.00
2023-04-16T03:19:37.578Z,424.00
2023-04-16T03:20:37.548Z,423.00
2023-04-16T03:21:37.594Z,422.00
2023-04-16T03:22:37.551Z,424.00
2023-04-16T03:23:37.566Z,425.00
2023-04-16T03:24:37.560Z,425.00
2023-04-16T03:25:37.552Z,425.00
2023-04-16T03:26:37.539Z,424.00
2023-04-16T03:27:37.638Z,425.00
2023-04-16T03:28:37.488Z,425.00
2023-04-16T03:29:37.554Z,424.00
2023-04-16T03:30:37.504Z,422.00
2023-04-16T03:31:37.633Z,423.00
2023-04-16T03:32:37.540Z,423.00
2023-04-16T03:33:37.449Z,423.00
2023-04-16T03:34:37.515Z,424.00
2023-04-16T03:35:37.507Z,426.00
2023-04-16T03:36:37.475Z,427.00
2023-04-16T03:37:37.449Z,426.00
2023-04-16T03:38:37.444Z,430.00
2023-04-16T03:39:37.455Z,431.00
2023-04-16T03:40:37.400Z,432.00
2023-04-16T03:41:37.422Z,432.00
2023-04-16T03:42:37.428Z,434.00
2023-04-16T03:43:37.427Z,433.00
2023-04-16T03:44:37.375Z,433.00
2023-04-16T03:45:37.384Z,431.00
2023-04-16T03:46:37.524Z,431.00
2023-04-16T03:47:37.397Z,432.00
2023-04-16T03:48:37.365Z,434.00
2023-04-16T03:49:37.368Z,434.00
2023-04-16T03:50:37.390Z,434.00
2023-04-16T03:51:37.316Z,432.00
2023-04-16T03:52:37.333Z,434.00
2023-04-16T03:53:37.365Z,438.00
2023-04-16T03:54:37.350Z,437.00
2023-04-16T03:55:37.328Z,437.00
2023-04-16T03:56:37.304Z,437.00
2023-04-16T03:57:37.328Z,438.00
2023-04-16T03:58:37.296Z,436.00
2023-04-16T03:59:37.316Z,435.00
2023-04-16T04:00:37.277Z,437.00
2023-04-16T04:01:37.344Z,439.00
2023-04-16T04:02:37.365Z,438.00
2023-04-16T04:03:37.497Z,437.00
2023-04-16T04:04:37.463Z,435.00
2023-04-16T04:05:37.252Z,435.00
2023-04-16T04:06:37.255Z,433.00
2023-04-16T04:07:37.260Z,434.00
2023-04-16T04:08:37.250Z,434.00
2023-04-16T04:09:37.291Z,433.00
2023-04-16T04:10:37.219Z,434.00
2023-04-16T04:11:37.253Z,434.00
2023-04-16T04:12:37.194Z,435.00
2023-04-16T04:13:37.240Z,435.00
2023-04-16T04:14:37.226Z,436.00
2023-04-16T04:15:37.161Z,435.00
2023-04-16T04:16:37.230Z,435.00
2023-04-16T04:17:37.229Z,432.00
2023-04-16T04:18:37.192Z,431.00
2023-04-16T04:19:40.260Z,430.00
2023-04-16T04:20:38.133Z,426.00
2023-04-16T04:21:37.180Z,424.00
2023-04-16T04:22:37.163Z,424.00
2023-04-16T04:23:37.167Z,424.00
2023-04-16T04:24:37.183Z,424.00
2023-04-16T04:25:37.087Z,419.00
2023-04-16T04:26:37.118Z,418.00
2023-04-16T04:27:37.116Z,418.00
2023-04-16T04:28:37.096Z,418.00
2023-04-16T04:29:37.107Z,417.00
2023-04-16T04:30:37.070Z,417.00
2023-04-16T04:31:37.068Z,417.00
2023-04-16T04:32:37.158Z,416.00
2023-04-16T04:33:37.060Z,416.00
2023-04-16T04:34:37.095Z,415.00
2023-04-16T04:35:37.058Z,414.00
2023-04-16T04:36:37.043Z,415.00
2023-04-16T04:37:37.034Z,416.00
2023-04-16T04:38:37.039Z,418.00
2023-04-16T04:39:37.058Z,420.00
2023-04-16T04:40:37.052Z,422.00
2023-04-16T04:41:37.094Z,424.00
2023-04-16T04:42:37.145Z,426.00
2023-04-16T04:43:37.133Z,424.00
2023-04-16T04:44:37.220Z,424.00
2023-04-16T04:45:37.213Z,423.00
2023-04-16T04:46:37.190Z,426.00
2023-04-16T04:47:37.230Z,426.00
2023-04-16T04:48:37.194Z,425.00
2023-04-16T04:49:37.219Z,425.00
2023-04-16T04:50:37.244Z,427.00
2023-04-16T04:51:37.276Z,427.00
2023-04-16T04:52:37.288Z,428.00
2023-04-16T04:53:37.232Z,427.00
2023-04-16T04:54:37.235Z,427.00
2023-04-16T04:55:37.252Z,429.00
2023-04-16T04:56:37.251Z,428.00
2023-04-16T04:57:37.277Z,426.00
2023-04-16T04:58:37.246Z,425.00
2023-04-16T04:59:37.285Z,423.00
2023-04-16T05:00:37.269Z,423.00
2023-04-16T05:01:37.309Z,422.00
2023-04-16T05:02:37.289Z,421.00
2023-04-16T05:03:37.495Z,421.00
2023-04-16T05:04:37.342Z,421.00
2023-04-16T05:05:37.298Z,424.00
2023-04-16T05:06:37.336Z,425.00
2023-04-16T05:07:37.333Z,423.00
2023-04-16T05:08:37.344Z,423.00
2023-04-16T05:09:37.383Z,424.00
2023-04-16T05:10:37.365Z,424.00
2023-04-16T05:11:37.367Z,425.00
2023-04-16T05:12:37.373Z,424.00
2023-04-16T05:13:37.370Z,423.00
2023-04-16T05:14:37.420Z,421.00
2023-04-16T05:15:37.392Z,421.00
2023-04-16T05:16:37.467Z,420.00
2023-04-16T05:17:37.479Z,420.00
2023-04-16T05:18:37.406Z,421.00
2023-04-16T05:19:37.426Z,419.00
2023-04-16T05:20:37.467Z,419.00
2023-04-16T05:21:37.545Z,420.00
2023-04-16T05:22:37.500Z,417.00
2023-04-16T05:23:37.495Z,419.00
2023-04-16T05:24:37.551Z,419.00
2023-04-16T05:25:37.564Z,420.00
2023-04-16T05:26:37.539Z,420.00
2023-04-16T05:27:37.559Z,421.00
2023-04-16T05:28:37.588Z,423.00
2023-04-16T05:29:37.713Z,424.00
2023-04-16T05:30:37.659Z,423.00
2023-04-16T05:31:37.655Z,423.00
2023-04-16T05:32:37.728Z,424.00
2023-04-16T05:33:37.731Z,424.00
2023-04-16T05:34:37.745Z,422.00
2023-04-16T05:35:37.786Z,421.00
2023-04-16T05:36:37.745Z,421.00
2023-04-16T05:37:37.748Z,422.00
2023-04-16T05:38:37.774Z,420.00
2023-04-16T05:39:38.604Z,421.00
2023-04-16T05:40:37.844Z,421.00
2023-04-16T05:41:37.794Z,422.00
2023-04-16T05:42:37.855Z,423.00
2023-04-16T05:43:37.884Z,423.00
2023-04-16T05:44:37.918Z,425.00
2023-04-16T05:45:37.874Z,427.00
2023-04-16T05:46:38.108Z,428.00
2023-04-16T05:47:38.011Z,428.00
2023-04-16T05:48:38.014Z,427.00
2023-04-16T05:49:37.974Z,425.00
2023-04-16T05:50:38.006Z,425.00
2023-04-16T05:51:38.006Z,423.00
2023-04-16T05:52:38.034Z,423.00
2023-04-16T05:53:38.036Z,423.00
2023-04-16T05:54:38.067Z,425.00
2023-04-16T05:55:38.055Z,426.00
2023-04-16T05:56:38.106Z,427.00
2023-04-16T05:57:38.109Z,427.00
2023-04-16T05:58:38.094Z,425.00
2023-04-16T05:59:38.152Z,424.00
2023-04-16T06:00:38.159Z,423.00
2023-04-16T06:01:38.185Z,424.00
2023-04-16T06:02:38.215Z,424.00
2023-04-16T06:03:38.188Z,424.00
2023-04-16T06:04:38.169Z,423.00
2023-04-16T06:05:38.206Z,422.00
2023-04-16T06:06:38.214Z,421.00
2023-04-16T06:07:38.194Z,420.00
2023-04-16T06:08:38.206Z,420.00
2023-04-16T06:09:38.205Z,421.00
2023-04-16T06:10:38.232Z,422.00
2023-04-16T06:11:38.229Z,422.00
2023-04-16T06:12:38.229Z,422.00
2023-04-16T06:13:38.205Z,422.00
2023-04-16T06:14:38.230Z,421.00
2023-04-16T06:15:38.257Z,421.00
2023-04-16T06:16:38.240Z,422.00
2023-04-16T06:17:38.237Z,423.00
2023-04-16T06:18:38.313Z,424.00
2023-04-16T06:19:38.284Z,424.00
2023-04-16T06:20:38.404Z,424.00
2023-04-16T06:21:38.401Z,423.00
2023-04-16T06:22:38.392Z,423.00
2023-04-16T06:23:38.407Z,424.00
2023-04-16T06:24:38.413Z,425.00
2023-04-16T06:25:38.398Z,426.00
2023-04-16T06:26:38.389Z,426.00
2023-04-16T06:27:38.455Z,424.00
2023-04-16T06:28:38.469Z,424.00
2023-04-16T06:29:41.515Z,425.00
2023-04-16T06:30:38.479Z,424.00
2023-04-16T06:31:38.498Z,425.00
2023-04-16T06:32:38.513Z,423.00
2023-04-16T06:33:38.504Z,421.00
2023-04-16T06:34:38.474Z,419.00
2023-04-16T06:35:38.446Z,421.00
2023-04-16T06:36:38.458Z,421.00
2023-04-16T06:37:38.465Z,421.00
2023-04-16T06:38:38.474Z,421.00
2023-04-16T06:39:38.422Z,421.00
2023-04-16T06:40:38.424Z,419.00
2023-04-16T06:41:38.424Z,420.00
2023-04-16T06:42:38.389Z,421.00
2023-04-16T06:43:38.376Z,421.00
2023-04-16T06:44:38.415Z,422.00
2023-04-16T06:45:38.405Z,423.00
2023-04-16T06:46:38.417Z,423.00
2023-04-16T06:47:38.460Z,421.00
2023-04-16T06:48:38.345Z,420.00
2023-04-16T06:49:38.359Z,417.00
2023-04-16T06:50:38.365Z,417.00
2023-04-16T06:51:38.353Z,419.00
2023-04-16T06:52:38.316Z,421.00
2023-04-16T06:53:38.325Z,420.00
2023-04-16T06:54:38.302Z,419.00
2023-04-16T06:55:38.376Z,421.00
2023-04-16T06:56:38.389Z,420.00
2023-04-16T06:57:38.298Z,421.00
2023-04-16T06:58:38.304Z,422.00
2023-04-16T06:59:38.323Z,423.00
2023-04-16T07:00:38.350Z,424.00
2023-04-16T07:01:38.261Z,426.00
2023-04-16T07:02:38.398Z,427.00
2023-04-16T07:03:38.413Z,425.00
2023-04-16T07:04:38.236Z,425.00
2023-04-16T07:05:38.250Z,423.00
2023-04-16T07:06:38.255Z,424.00
2023-04-16T07:07:38.241Z,422.00
2023-04-16T07:08:38.233Z,421.00
2023-04-16T07:09:38.245Z,420.00
2023-04-16T07:10:38.166Z,420.00
2023-04-16T07:11:38.186Z,419.00
2023-04-16T07:12:38.179Z,419.00
2023-04-16T07:13:38.194Z,420.00
2023-04-16T07:14:38.219Z,423.00
2023-04-16T07:15:38.176Z,422.00
2023-04-16T07:16:38.252Z,424.00
2023-04-16T07:17:38.166Z,425.00
2023-04-16T07:18:38.173Z,423.00
2023-04-16T07:19:38.190Z,420.00
2023-04-16T07:20:38.145Z,420.00
2023-04-16T07:21:38.156Z,421.00
2023-04-16T07:22:38.159Z,420.00
2023-04-16T07:23:38.123Z,420.00
2023-04-16T07:24:38.139Z,421.00
2023-04-16T07:25:38.081Z,422.00
2023-04-16T07:26:38.144Z,422.00
2023-04-16T07:27:38.203Z,422.00
2023-04-16T07:28:38.299Z,423.00
2023-04-16T07:29:38.352Z,423.00
2023-04-16T07:30:38.435Z,422.00
2023-04-16T07:31:38.533Z,425.00
2023-04-16T07:32:38.571Z,426.00
2023-04-16T07:33:38.565Z,425.00
2023-04-16T07:34:38.637Z,426.00
2023-04-16T07:35:38.650Z,425.00
2023-04-16T07:36:38.669Z,424.00
2023-04-16T07:37:38.743Z,423.00
2023-04-16T07:38:38.750Z,423.00
2023-04-16T07:39:38.836Z,422.00
2023-04-16T07:40:38.865Z,423.00
2023-04-16T07:41:38.858Z,422.00
2023-04-16T07:42:38.929Z,423.00
2023-04-16T07:43:38.979Z,423.00
2023-04-16T07:44:39.014Z,425.00
2023-04-16T07:45:40.060Z,424.00
2023-04-16T07:46:46.232Z,423.00
2023-04-16T07:47:40.180Z,426.00
2023-04-16T07:48:39.096Z,426.00
2023-04-16T07:49:39.129Z,427.00
2023-04-16T07:50:39.108Z,425.00
2023-04-16T07:51:39.089Z,426.00
2023-04-16T07:52:39.057Z,428.00
2023-04-16T07:53:39.087Z,427.00
2023-04-16T07:54:39.111Z,427.00
2023-04-16T07:55:39.057Z,427.00
2023-04-16T07:56:39.067Z,427.00
2023-04-16T07:57:39.034Z,428.00
2023-04-16T07:58:39.069Z,430.00
2023-04-16T07:59:39.177Z,431.00
2023-04-16T08:00:39.192Z,431.00
2023-04-16T08:01:39.256Z,431.00
2023-04-16T08:02:39.389Z,430.00
2023-04-16T08:03:39.480Z,431.00
2023-04-16T08:04:39.398Z,429.00
2023-04-16T08:05:39.389Z,429.00
2023-04-16T08:06:39.390Z,429.00
2023-04-16T08:07:39.410Z,430.00
2023-04-16T08:08:39.457Z,430.00
2023-04-16T08:09:39.470Z,428.00
2023-04-16T08:10:39.440Z,428.00
2023-04-16T08:11:39.477Z,428.00
2023-04-16T08:12:39.511Z,428.00
2023-04-16T08:13:39.482Z,426.00
2023-04-16T08:14:39.493Z,424.00
2023-04-16T08:15:39.580Z,426.00
2023-04-16T08:16:39.516Z,426.00
2023-04-16T08:17:39.609Z,427.00
2023-04-16T08:18:39.527Z,424.00
2023-04-16T08:19:39.527Z,424.00
2023-04-16T08:20:39.567Z,423.00
2023-04-16T08:21:39.570Z,424.00
2023-04-16T08:22:39.600Z,424.00
2023-04-16T08:23:39.584Z,426.00
2023-04-16T08:24:39.598Z,425.00
2023-04-16T08:25:39.687Z,422.00
2023-04-16T08:26:39.641Z,422.00
2023-04-16T08:27:39.882Z,422.00
2023-04-16T08:28:39.793Z,424.00
2023-04-16T08:29:39.848Z,426.00
2023-04-16T08:30:39.892Z,426.00
2023-04-16T08:31:40.014Z,425.00
2023-04-16T08:32:40.047Z,427.00
2023-04-16T08:33:40.016Z,430.00
2023-04-16T08:34:40.078Z,430.00
2023-04-16T08:35:40.150Z,428.00
2023-04-16T08:36:40.152Z,427.00
2023-04-16T08:37:40.189Z,426.00
2023-04-16T08:38:40.230Z,428.00
2023-04-16T08:39:40.212Z,430.00
2023-04-16T08:40:40.263Z,432.00
2023-04-16T08:41:40.228Z,431.00
2023-04-16T08:42:40.258Z,432.00
2023-04-16T08:43:40.291Z,430.00
2023-04-16T08:44:40.288Z,430.00
2023-04-16T08:45:40.312Z,432.00
2023-04-16T08:46:40.445Z,431.00
2023-04-16T08:47:40.315Z,432.00
2023-04-16T08:48:40.342Z,433.00
2023-04-16T08:49:40.292Z,431.00
2023-04-16T08:50:40.321Z,434.00
2023-04-16T08:51:40.320Z,434.00
2023-04-16T08:52:40.321Z,435.00
2023-04-16T08:53:40.309Z,431.00
2023-04-16T08:54:40.340Z,430.00
2023-04-16T08:55:40.422Z,429.00
2023-04-16T08:56:42.886Z,431.00
2023-04-16T08:57:40.354Z,430.00
2023-04-16T08:58:40.338Z,429.00
2023-04-16T08:59:40.366Z,429.00
2023-04-16T09:00:40.357Z,428.00
2023-04-16T09:01:40.348Z,428.00
2023-04-16T09:02:40.681Z,426.00
2023-04-16T09:03:40.360Z,426.00
2023-04-16T09:04:40.377Z,429.00
2023-04-16T09:05:40.293Z,430.00
2023-04-16T09:06:40.297Z,431.00
2023-04-16T09:07:40.287Z,432.00
2023-04-16T09:08:40.278Z,434.00
2023-04-16T09:09:40.218Z,433.00
2023-04-16T09:10:40.295Z,431.00
2023-04-16T09:11:40.324Z,430.00
2023-04-16T09:12:40.253Z,428.00
2023-04-16T09:13:40.242Z,426.00
2023-04-16T09:14:40.248Z,425.00
2023-04-16T09:15:40.246Z,425.00
2023-04-16T09:16:40.379Z,425.00
2023-04-16T09:17:40.275Z,426.00
2023-04-16T09:18:40.191Z,426.00
2023-04-16T09:19:40.182Z,426.00
2023-04-16T09:20:40.995Z,425.00
2023-04-16T09:21:40.199Z,425.00
2023-04-16T09:22:40.230Z,425.00
2023-04-16T09:23:40.155Z,425.00
2023-04-16T09:24:40.154Z,427.00
2023-04-16T09:25:40.208Z,427.00
2023-04-16T09:26:40.163Z,428.00
2023-04-16T09:27:40.140Z,432.00
2023-04-16T09:28:40.189Z,432.00
2023-04-16T09:29:40.178Z,434.00
2023-04-16T09:30:40.175Z,431.00
2023-04-16T09:31:40.161Z,429.00
2023-04-16T09:32:40.179Z,431.00
2023-04-16T09:33:40.096Z,430.00
2023-04-16T09:34:40.094Z,428.00
2023-04-16T09:35:40.105Z,428.00
2023-04-16T09:36:40.083Z,426.00
2023-04-16T09:37:40.106Z,426.00
2023-04-16T09:38:40.080Z,426.00
2023-04-16T09:39:40.078Z,426.00
2023-04-16T09:40:40.102Z,427.00
2023-04-16T09:41:40.037Z,427.00
2023-04-16T09:42:40.059Z,427.00
2023-04-16T09:43:40.074Z,427.00
2023-04-16T09:44:40.079Z,428.00
2023-04-16T09:45:40.130Z,429.00
2023-04-16T09:46:40.018Z,429.00
2023-04-16T09:47:40.110Z,428.00
2023-04-16T09:48:40.024Z,428.00
2023-04-16T09:49:39.991Z,425.00
2023-04-16T09:50:39.994Z,424.00
2023-04-16T09:51:40.025Z,423.00
2023-04-16T09:52:39.983Z,423.00
2023-04-16T09:53:39.969Z,422.00
2023-04-16T09:54:40.058Z,422.00
2023-04-16T09:55:40.022Z,422.00
2023-04-16T09:56:39.972Z,421.00
2023-04-16T09:57:39.941Z,419.00
2023-04-16T09:58:39.929Z,420.00
2023-04-16T09:59:39.951Z,421.00
2023-04-16T10:00:43.661Z,422.00
2023-04-16T10:01:40.033Z,422.00
2023-04-16T10:02:39.981Z,420.00
2023-04-16T10:03:40.220Z,422.00
2023-04-16T10:04:39.900Z,424.00
2023-04-16T10:05:39.935Z,425.00
2023-04-16T10:06:39.881Z,427.00
2023-04-16T10:07:39.901Z,424.00
2023-04-16T10:08:39.880Z,422.00
2023-04-16T10:09:39.871Z,422.00
2023-04-16T10:10:39.880Z,421.00
2023-04-16T10:11:39.864Z,420.00
2023-04-16T10:12:39.838Z,423.00
2023-04-16T10:13:39.873Z,421.00
2023-04-16T10:14:39.867Z,422.00
2023-04-16T10:15:39.858Z,423.00
2023-04-16T10:16:39.950Z,425.00
2023-04-16T10:17:39.897Z,425.00
2023-04-16T10:18:39.802Z,425.00
2023-04-16T10:19:39.778Z,426.00
2023-04-16T10:20:39.781Z,424.00
2023-04-16T10:21:39.797Z,425.00
2023-04-16T10:22:39.805Z,429.00
2023-04-16T10:23:39.790Z,429.00
2023-04-16T10:24:39.772Z,425.00
2023-04-16T10:25:39.814Z,424.00
2023-04-16T10:26:39.778Z,426.00
2023-04-16T10:27:39.728Z,423.00
2023-04-16T10:28:39.816Z,421.00
2023-04-16T10:29:39.709Z,418.00
2023-04-16T10:30:39.842Z,416.00
2023-04-16T10:31:39.729Z,415.00
2023-04-16T10:32:39.754Z,417.00
2023-04-16T10:33:39.722Z,417.00
2023-04-16T10:34:39.681Z,416.00
2023-04-16T10:35:39.695Z,418.00
2023-04-16T10:36:39.688Z,420.00
2023-04-16T10:37:39.640Z,417.00
2023-04-16T10:38:39.668Z,418.00
2023-04-16T10:39:39.684Z,420.00
2023-04-16T10:40:39.682Z,422.00
2023-04-16T10:41:39.632Z,420.00
2023-04-16T10:42:39.681Z,417.00
2023-04-16T10:43:39.746Z,416.00
2023-04-16T10:44:41.888Z,416.00
2023-04-16T10:45:39.792Z,417.00
2023-04-16T10:46:39.907Z,418.00
2023-04-16T10:47:39.808Z,416.00
2023-04-16T10:48:49.629Z,413.00
2023-04-16T10:49:40.766Z,416.00
2023-04-16T10:50:39.756Z,412.00
2023-04-16T10:51:39.767Z,415.00
2023-04-16T10:52:39.772Z,419.00
2023-04-16T10:53:39.759Z,420.00
2023-04-16T10:54:39.772Z,418.00
2023-04-16T10:55:39.735Z,418.00
2023-04-16T10:56:39.694Z,417.00
2023-04-16T10:57:39.724Z,418.00
2023-04-16T10:58:39.724Z,418.00
2023-04-16T10:59:39.713Z,417.00
2023-04-16T11:00:39.752Z,417.00
2023-04-16T11:01:39.971Z,416.00
2023-04-16T11:02:39.887Z,416.00
2023-04-16T11:03:40.041Z,416.00
2023-04-16T11:04:39.974Z,419.00
2023-04-16T11:05:39.942Z,425.00
2023-04-16T11:06:39.898Z,433.00
2023-04-16T11:07:39.999Z,435.00
2023-04-16T11:08:53.247Z,432.00
2023-04-16T11:09:40.950Z,427.00
2023-04-16T11:10:39.944Z,426.00
2023-04-16T11:11:40.028Z,424.00
2023-04-16T11:12:39.990Z,421.00
2023-04-16T11:13:40.657Z,421.00
2023-04-16T11:14:39.939Z,422.00
2023-04-16T11:15:39.998Z,425.00
2023-04-16T11:16:39.883Z,427.00
2023-04-16T11:17:40.022Z,427.00
2023-04-16T11:18:41.637Z,427.00
2023-04-16T11:19:40.900Z,425.00
2023-04-16T11:20:39.894Z,424.00
2023-04-16T11:21:39.929Z,422.00
2023-04-16T11:22:39.827Z,420.00
2023-04-16T11:23:39.865Z,418.00
2023-04-16T11:24:39.866Z,419.00
2023-04-16T11:25:39.835Z,422.00
2023-04-16T11:26:39.822Z,424.00
2023-04-16T11:27:39.904Z,423.00
2023-04-16T11:28:39.907Z,424.00
2023-04-16T11:29:39.936Z,424.00
2023-04-16T11:30:39.967Z,424.00
2023-04-16T11:31:40.069Z,422.00
2023-04-16T11:32:40.087Z,422.00
2023-04-16T11:33:40.119Z,420.00
2023-04-16T11:34:40.216Z,418.00
2023-04-16T11:35:40.296Z,418.00
2023-04-16T11:36:40.287Z,420.00
2023-04-16T11:37:40.348Z,419.00
2023-04-16T11:38:40.372Z,418.00
2023-04-16T11:39:40.358Z,416.00
2023-04-16T11:40:40.456Z,416.00
2023-04-16T11:41:40.525Z,418.00
2023-04-16T11:42:40.589Z,418.00
2023-04-16T11:43:40.532Z,419.00
2023-04-16T11:44:40.554Z,421.00
2023-04-16T11:45:40.602Z,420.00
2023-04-16T11:46:40.769Z,420.00
2023-04-16T11:47:40.613Z,420.00
2023-04-16T11:48:40.715Z,418.00
2023-04-16T11:49:40.634Z,418.00
2023-04-16T11:50:40.661Z,418.00
2023-04-16T11:51:40.651Z,418.00
2023-04-16T11:52:40.696Z,418.00
2023-04-16T11:53:40.739Z,418.00
2023-04-16T11:54:40.727Z,419.00
2023-04-16T11:55:40.820Z,419.00
2023-04-16T11:56:40.802Z,418.00
2023-04-16T11:57:40.917Z,421.00
2023-04-16T11:58:43.272Z,419.00
2023-04-16T12:00:02.166Z,418.00
2023-04-16T12:00:42.160Z,419.00
2023-04-16T12:01:41.248Z,421.00
2023-04-16T12:02:41.312Z,418.00
2023-04-16T12:03:41.300Z,417.00
2023-04-16T12:04:41.185Z,415.00
2023-04-16T12:05:41.113Z,416.00
2023-04-16T12:06:41.101Z,415.00
2023-04-16T12:07:41.065Z,416.00
2023-04-16T12:08:41.166Z,415.00
2023-04-16T12:09:41.315Z,414.00
2023-04-16T12:10:41.253Z,416.00
2023-04-16T12:11:41.303Z,416.00
2023-04-16T12:12:41.381Z,413.00
2023-04-16T12:13:41.440Z,412.00
2023-04-16T12:14:41.378Z,412.00
2023-04-16T12:15:41.404Z,410.00
2023-04-16T12:16:41.425Z,409.00
2023-04-16T12:17:41.448Z,409.00
2023-04-16T12:18:41.486Z,409.00
2023-04-16T12:19:41.450Z,410.00
2023-04-16T12:20:41.525Z,411.00
2023-04-16T12:21:41.553Z,411.00
2023-04-16T12:22:41.604Z,412.00
2023-04-16T12:23:41.635Z,415.00
2023-04-16T12:24:41.637Z,413.00
2023-04-16T12:25:41.724Z,416.00
2023-04-16T12:26:41.756Z,419.00
2023-04-16T12:27:41.882Z,421.00
2023-04-16T12:28:41.950Z,420.00